sensor_id;sensor_type;location;lat;lon;timestamp;P1;durP1;ratioP1;P2;durP2;ratioP2
42670;SDS011;28283;55.426;37.756;2022-11-15T00:04:54;4.43;;;0.57;;
42670;SDS011;28283;55.426;37.756;2022-11-15T00:09:55;2.03;;;0.70;;
42670;SDS011;28283;55.426;37.756;2022-11-15T00:14:56;4.00;;;0.98;;
42670;SDS011;28283;55.426;37.756;2022-11-15T00:19:57;3.25;;;1.15;;
42670;SDS011;28283;55.426;37.756;2022-11-15T00:24:58;1.05;;;0.40;;
42670;SDS011;28283;55.426;37.756;2022-11-15T00:29:58;2.10;;;0.60;;
42670;SDS011;28283;55.426;37.756;2022-11-15T00:34:59;4.68;;;0.60;;
42670;SDS011;28283;55.426;37.756;2022-11-15T00:40:00;5.90;;;0.85;;
42670;SDS011;28283;55.426;37.756;2022-11-15T00:45:01;0.93;;;0.50;;
42670;SDS011;28283;55.426;37.756;2022-11-15T00:50:02;4.95;;;0.68;;
42670;SDS011;28283;55.426;37.756;2022-11-15T00:55:03;2.47;;;0.68;;
42670;SDS011;28283;55.426;37.756;2022-11-15T01:00:04;2.65;;;0.80;;
42670;SDS011;28283;55.426;37.756;2022-11-15T01:05:05;2.10;;;0.80;;
42670;SDS011;28283;55.426;37.756;2022-11-15T01:10:07;2.08;;;0.85;;
42670;SDS011;28283;55.426;37.756;2022-11-15T01:15:08;2.05;;;0.63;;
42670;SDS011;28283;55.426;37.756;2022-11-15T01:20:09;1.20;;;0.50;;
42670;SDS011;28283;55.426;37.756;2022-11-15T01:30:11;4.63;;;0.70;;
42670;SDS011;28283;55.426;37.756;2022-11-15T01:35:12;0.60;;;0.40;;
42670;SDS011;28283;55.426;37.756;2022-11-15T01:40:12;2.00;;;0.57;;
42670;SDS011;28283;55.426;37.756;2022-11-15T01:45:14;0.25;;;0.20;;
42670;SDS011;28283;55.426;37.756;2022-11-15T01:50:17;10.52;;;1.65;;
42670;SDS011;28283;55.426;37.756;2022-11-15T01:55:26;4.43;;;1.55;;
42670;SDS011;28283;55.426;37.756;2022-11-15T02:00:28;2.08;;;0.65;;
42670;SDS011;28283;55.426;37.756;2022-11-15T02:05:30;2.30;;;0.50;;
42670;SDS011;28283;55.426;37.756;2022-11-15T02:10:31;3.40;;;0.70;;
42670;SDS011;28283;55.426;37.756;2022-11-15T02:15:34;2.53;;;1.15;;
42670;SDS011;28283;55.426;37.756;2022-11-15T02:20:47;0.55;;;0.55;;
42670;SDS011;28283;55.426;37.756;2022-11-15T02:26:01;3.27;;;0.80;;
42670;SDS011;28283;55.426;37.756;2022-11-15T02:36:21;2.60;;;0.80;;
42670;SDS011;28283;55.426;37.756;2022-11-15T02:41:42;2.00;;;0.50;;
42670;SDS011;28283;55.426;37.756;2022-11-15T02:52:19;0.40;;;0.28;;
42670;SDS011;28283;55.426;37.756;2022-11-15T02:57:44;4.13;;;0.80;;
42670;SDS011;28283;55.426;37.756;2022-11-15T03:03:08;1.27;;;0.82;;
42670;SDS011;28283;55.426;37.756;2022-11-15T03:13:33;0.82;;;0.55;;
42670;SDS011;28283;55.426;37.756;2022-11-15T03:19:25;2.47;;;1.00;;
42670;SDS011;28283;55.426;37.756;2022-11-15T03:24:22;2.22;;;0.40;;
42670;SDS011;28283;55.426;37.756;2022-11-15T03:29:27;3.92;;;1.05;;
42670;SDS011;28283;55.426;37.756;2022-11-15T03:34:34;3.15;;;0.60;;
42670;SDS011;28283;55.426;37.756;2022-11-15T03:39:42;7.53;;;0.63;;
42670;SDS011;28283;55.426;37.756;2022-11-15T03:49:50;9.00;;;1.08;;
42670;SDS011;28283;55.426;37.756;2022-11-15T03:54:56;2.75;;;0.60;;
42670;SDS011;28283;55.426;37.756;2022-11-15T03:59:57;1.02;;;0.28;;
42670;SDS011;28283;55.426;37.756;2022-11-15T04:04:57;4.95;;;0.88;;
42670;SDS011;28283;55.426;37.756;2022-11-15T04:09:58;1.17;;;0.65;;
42670;SDS011;28283;55.426;37.756;2022-11-15T04:15:22;6.93;;;1.60;;
42670;SDS011;28283;55.426;37.756;2022-11-15T04:20:25;8.65;;;0.75;;
42670;SDS011;28283;55.426;37.756;2022-11-15T04:25:46;1.10;;;0.60;;
42670;SDS011;28283;55.426;37.756;2022-11-15T04:31:09;1.08;;;0.57;;
42670;SDS011;28283;55.426;37.756;2022-11-15T04:36:29;1.67;;;0.30;;
42670;SDS011;28283;55.426;37.756;2022-11-15T04:42:06;1.80;;;0.43;;
42670;SDS011;28283;55.426;37.756;2022-11-15T04:47:26;2.63;;;0.50;;
42670;SDS011;28283;55.426;37.756;2022-11-15T04:52:28;2.55;;;0.75;;
42670;SDS011;28283;55.426;37.756;2022-11-15T04:57:29;2.33;;;0.52;;
42670;SDS011;28283;55.426;37.756;2022-11-15T05:02:30;1.60;;;0.32;;
42670;SDS011;28283;55.426;37.756;2022-11-15T05:07:53;2.20;;;0.68;;
42670;SDS011;28283;55.426;37.756;2022-11-15T05:12:54;3.50;;;0.77;;
42670;SDS011;28283;55.426;37.756;2022-11-15T05:17:58;6.00;;;0.52;;
42670;SDS011;28283;55.426;37.756;2022-11-15T05:22:59;6.28;;;0.40;;
42670;SDS011;28283;55.426;37.756;2022-11-15T05:28:00;3.83;;;0.60;;
42670;SDS011;28283;55.426;37.756;2022-11-15T05:33:01;1.63;;;0.73;;
42670;SDS011;28283;55.426;37.756;2022-11-15T05:38:02;2.20;;;0.80;;
42670;SDS011;28283;55.426;37.756;2022-11-15T05:43:04;0.43;;;0.22;;
42670;SDS011;28283;55.426;37.756;2022-11-15T05:48:06;0.43;;;0.40;;
42670;SDS011;28283;55.426;37.756;2022-11-15T05:53:10;3.35;;;1.08;;
42670;SDS011;28283;55.426;37.756;2022-11-15T05:58:13;0.50;;;0.20;;
42670;SDS011;28283;55.426;37.756;2022-11-15T06:03:14;5.47;;;0.75;;
42670;SDS011;28283;55.426;37.756;2022-11-15T06:13:15;4.05;;;0.60;;
42670;SDS011;28283;55.426;37.756;2022-11-15T06:18:16;2.65;;;0.68;;
42670;SDS011;28283;55.426;37.756;2022-11-15T06:23:17;2.65;;;0.85;;
42670;SDS011;28283;55.426;37.756;2022-11-15T06:28:18;1.27;;;0.50;;
42670;SDS011;28283;55.426;37.756;2022-11-15T06:33:19;2.42;;;0.50;;
42670;SDS011;28283;55.426;37.756;2022-11-15T06:38:19;6.65;;;1.20;;
42670;SDS011;28283;55.426;37.756;2022-11-15T06:43:20;2.75;;;0.30;;
42670;SDS011;28283;55.426;37.756;2022-11-15T06:48:21;2.33;;;1.17;;
42670;SDS011;28283;55.426;37.756;2022-11-15T06:53:22;0.75;;;0.40;;
42670;SDS011;28283;55.426;37.756;2022-11-15T07:03:24;5.25;;;0.95;;
42670;SDS011;28283;55.426;37.756;2022-11-15T07:08:26;6.47;;;1.10;;
42670;SDS011;28283;55.426;37.756;2022-11-15T07:13:29;7.07;;;1.33;;
42670;SDS011;28283;55.426;37.756;2022-11-15T07:18:33;12.77;;;2.95;;
42670;SDS011;28283;55.426;37.756;2022-11-15T07:23:39;4.47;;;1.73;;
42670;SDS011;28283;55.426;37.756;2022-11-15T07:28:40;6.03;;;2.50;;
42670;SDS011;28283;55.426;37.756;2022-11-15T07:33:41;10.98;;;2.45;;
42670;SDS011;28283;55.426;37.756;2022-11-15T07:38:41;9.05;;;2.08;;
42670;SDS011;28283;55.426;37.756;2022-11-15T07:43:42;4.45;;;2.40;;
42670;SDS011;28283;55.426;37.756;2022-11-15T07:48:45;9.65;;;2.67;;
42670;SDS011;28283;55.426;37.756;2022-11-15T07:53:46;8.25;;;3.15;;
42670;SDS011;28283;55.426;37.756;2022-11-15T07:58:47;6.28;;;1.88;;
42670;SDS011;28283;55.426;37.756;2022-11-15T08:03:50;4.97;;;1.30;;
42670;SDS011;28283;55.426;37.756;2022-11-15T08:08:51;4.75;;;1.90;;
42670;SDS011;28283;55.426;37.756;2022-11-15T08:13:52;8.13;;;1.83;;
42670;SDS011;28283;55.426;37.756;2022-11-15T08:18:52;2.03;;;0.70;;
42670;SDS011;28283;55.426;37.756;2022-11-15T08:23:53;4.35;;;0.80;;
42670;SDS011;28283;55.426;37.756;2022-11-15T08:28:54;2.15;;;1.75;;
42670;SDS011;28283;55.426;37.756;2022-11-15T08:33:55;3.15;;;0.98;;
42670;SDS011;28283;55.426;37.756;2022-11-15T08:38:56;4.60;;;0.85;;
42670;SDS011;28283;55.426;37.756;2022-11-15T08:43:56;5.15;;;1.00;;
42670;SDS011;28283;55.426;37.756;2022-11-15T08:48:57;8.93;;;0.85;;
42670;SDS011;28283;55.426;37.756;2022-11-15T08:53:58;3.70;;;0.82;;
42670;SDS011;28283;55.426;37.756;2022-11-15T08:58:59;8.00;;;2.95;;
42670;SDS011;28283;55.426;37.756;2022-11-15T09:03:59;5.93;;;1.17;;
42670;SDS011;28283;55.426;37.756;2022-11-15T09:09:01;5.20;;;1.67;;
42670;SDS011;28283;55.426;37.756;2022-11-15T09:14:02;6.97;;;1.02;;
42670;SDS011;28283;55.426;37.756;2022-11-15T09:19:03;9.38;;;0.80;;
42670;SDS011;28283;55.426;37.756;2022-11-15T09:24:06;2.35;;;0.57;;
42670;SDS011;28283;55.426;37.756;2022-11-15T09:29:14;9.60;;;3.40;;
42670;SDS011;28283;55.426;37.756;2022-11-15T09:34:15;6.30;;;1.23;;
42670;SDS011;28283;55.426;37.756;2022-11-15T09:39:15;4.35;;;1.30;;
42670;SDS011;28283;55.426;37.756;2022-11-15T09:49:20;3.88;;;1.13;;
42670;SDS011;28283;55.426;37.756;2022-11-15T09:54:30;2.15;;;0.82;;
42670;SDS011;28283;55.426;37.756;2022-11-15T10:04:39;2.58;;;0.93;;
42670;SDS011;28283;55.426;37.756;2022-11-15T10:14:45;5.80;;;1.02;;
42670;SDS011;28283;55.426;37.756;2022-11-15T10:30:03;3.53;;;1.23;;
42670;SDS011;28283;55.426;37.756;2022-11-15T10:35:17;5.43;;;1.45;;
42670;SDS011;28283;55.426;37.756;2022-11-15T10:40:22;9.67;;;0.97;;
42670;SDS011;28283;55.426;37.756;2022-11-15T10:45:30;4.80;;;1.10;;
42670;SDS011;28283;55.426;37.756;2022-11-15T10:50:32;7.07;;;1.75;;
42670;SDS011;28283;55.426;37.756;2022-11-15T11:00:35;6.25;;;0.98;;
42670;SDS011;28283;55.426;37.756;2022-11-15T11:05:40;4.90;;;1.63;;
42670;SDS011;28283;55.426;37.756;2022-11-15T11:10:51;5.65;;;0.80;;
42670;SDS011;28283;55.426;37.756;2022-11-15T11:21:10;7.88;;;1.67;;
42670;SDS011;28283;55.426;37.756;2022-11-15T11:26:29;1.92;;;1.17;;
42670;SDS011;28283;55.426;37.756;2022-11-15T11:53:32;4.70;;;1.37;;
42670;SDS011;28283;55.426;37.756;2022-11-15T11:58:41;11.18;;;1.90;;
42670;SDS011;28283;55.426;37.756;2022-11-15T12:03:48;4.78;;;1.15;;
42670;SDS011;28283;55.426;37.756;2022-11-15T12:19:17;3.30;;;1.42;;
42670;SDS011;28283;55.426;37.756;2022-11-15T12:29:31;4.85;;;1.17;;
42670;SDS011;28283;55.426;37.756;2022-11-15T12:34:39;3.90;;;1.63;;
42670;SDS011;28283;55.426;37.756;2022-11-15T12:45:24;4.45;;;1.35;;
42670;SDS011;28283;55.426;37.756;2022-11-15T13:06:41;6.15;;;1.98;;
42670;SDS011;28283;55.426;37.756;2022-11-15T13:11:45;4.57;;;1.70;;
42670;SDS011;28283;55.426;37.756;2022-11-15T13:16:47;4.57;;;2.33;;
42670;SDS011;28283;55.426;37.756;2022-11-15T13:21:51;9.73;;;2.40;;
42670;SDS011;28283;55.426;37.756;2022-11-15T13:27:14;5.55;;;2.00;;
42670;SDS011;28283;55.426;37.756;2022-11-15T13:32:18;3.63;;;1.63;;
42670;SDS011;28283;55.426;37.756;2022-11-15T13:42:21;3.78;;;1.73;;
42670;SDS011;28283;55.426;37.756;2022-11-15T13:47:22;3.55;;;1.50;;
42670;SDS011;28283;55.426;37.756;2022-11-15T13:52:33;6.22;;;4.38;;
42670;SDS011;28283;55.426;37.756;2022-11-15T13:57:40;3.88;;;1.88;;
42670;SDS011;28283;55.426;37.756;2022-11-15T14:02:44;6.35;;;1.83;;
42670;SDS011;28283;55.426;37.756;2022-11-15T14:07:58;4.85;;;2.60;;
42670;SDS011;28283;55.426;37.756;2022-11-15T14:13:28;4.45;;;2.08;;
42670;SDS011;28283;55.426;37.756;2022-11-15T14:23:46;6.53;;;1.52;;
42670;SDS011;28283;55.426;37.756;2022-11-15T14:28:49;7.07;;;2.85;;
42670;SDS011;28283;55.426;37.756;2022-11-15T14:33:50;4.50;;;2.17;;
42670;SDS011;28283;55.426;37.756;2022-11-15T14:38:50;5.45;;;2.10;;
42670;SDS011;28283;55.426;37.756;2022-11-15T14:43:51;7.88;;;3.05;;
42670;SDS011;28283;55.426;37.756;2022-11-15T14:48:54;6.85;;;2.58;;
42670;SDS011;28283;55.426;37.756;2022-11-15T14:53:55;6.05;;;2.88;;
42670;SDS011;28283;55.426;37.756;2022-11-15T14:58:55;5.82;;;2.97;;
42670;SDS011;28283;55.426;37.756;2022-11-15T15:03:58;2.85;;;2.30;;
42670;SDS011;28283;55.426;37.756;2022-11-15T15:08:59;8.30;;;3.40;;
42670;SDS011;28283;55.426;37.756;2022-11-15T15:14:00;5.60;;;3.70;;
42670;SDS011;28283;55.426;37.756;2022-11-15T15:19:01;6.65;;;2.90;;
42670;SDS011;28283;55.426;37.756;2022-11-15T15:24:02;10.77;;;3.58;;
42670;SDS011;28283;55.426;37.756;2022-11-15T15:34:04;6.07;;;3.10;;
42670;SDS011;28283;55.426;37.756;2022-11-15T15:39:09;5.68;;;3.08;;
42670;SDS011;28283;55.426;37.756;2022-11-15T15:44:14;5.47;;;3.08;;
42670;SDS011;28283;55.426;37.756;2022-11-15T15:49:18;7.78;;;3.22;;
42670;SDS011;28283;55.426;37.756;2022-11-15T15:54:21;6.60;;;2.85;;
42670;SDS011;28283;55.426;37.756;2022-11-15T15:59:22;3.45;;;1.98;;
42670;SDS011;28283;55.426;37.756;2022-11-15T16:04:23;2.65;;;1.98;;
42670;SDS011;28283;55.426;37.756;2022-11-15T16:14:43;4.13;;;2.30;;
42670;SDS011;28283;55.426;37.756;2022-11-15T16:19:44;5.93;;;2.38;;
42670;SDS011;28283;55.426;37.756;2022-11-15T16:24:45;3.90;;;2.10;;
42670;SDS011;28283;55.426;37.756;2022-11-15T16:29:46;5.80;;;3.08;;
42670;SDS011;28283;55.426;37.756;2022-11-15T16:39:48;5.78;;;2.35;;
42670;SDS011;28283;55.426;37.756;2022-11-15T16:49:49;3.92;;;2.40;;
42670;SDS011;28283;55.426;37.756;2022-11-15T16:54:50;5.80;;;2.50;;
42670;SDS011;28283;55.426;37.756;2022-11-15T16:59:51;3.55;;;2.22;;
42670;SDS011;28283;55.426;37.756;2022-11-15T17:04:51;4.65;;;2.90;;
42670;SDS011;28283;55.426;37.756;2022-11-15T17:09:52;8.10;;;2.60;;
42670;SDS011;28283;55.426;37.756;2022-11-15T17:14:56;8.43;;;3.78;;
42670;SDS011;28283;55.426;37.756;2022-11-15T17:19:57;4.47;;;3.45;;
42670;SDS011;28283;55.426;37.756;2022-11-15T17:24:58;4.43;;;3.15;;
42670;SDS011;28283;55.426;37.756;2022-11-15T17:29:58;5.05;;;3.53;;
42670;SDS011;28283;55.426;37.756;2022-11-15T17:34:59;4.45;;;2.58;;
42670;SDS011;28283;55.426;37.756;2022-11-15T17:40:00;7.57;;;2.67;;
42670;SDS011;28283;55.426;37.756;2022-11-15T17:50:02;4.78;;;2.88;;
42670;SDS011;28283;55.426;37.756;2022-11-15T17:55:04;4.80;;;2.92;;
42670;SDS011;28283;55.426;37.756;2022-11-15T18:00:05;5.40;;;3.40;;
42670;SDS011;28283;55.426;37.756;2022-11-15T18:05:07;6.28;;;2.90;;
42670;SDS011;28283;55.426;37.756;2022-11-15T18:10:07;4.63;;;2.55;;
42670;SDS011;28283;55.426;37.756;2022-11-15T18:15:08;6.90;;;2.78;;
42670;SDS011;28283;55.426;37.756;2022-11-15T18:25:10;3.92;;;2.90;;
42670;SDS011;28283;55.426;37.756;2022-11-15T18:30:15;4.22;;;2.70;;
42670;SDS011;28283;55.426;37.756;2022-11-15T18:40:16;6.70;;;2.58;;
42670;SDS011;28283;55.426;37.756;2022-11-15T18:45:17;9.75;;;2.50;;
42670;SDS011;28283;55.426;37.756;2022-11-15T18:50:18;4.05;;;2.15;;
42670;SDS011;28283;55.426;37.756;2022-11-15T18:55:27;5.07;;;2.47;;
42670;SDS011;28283;55.426;37.756;2022-11-15T19:00:28;2.45;;;2.22;;
42670;SDS011;28283;55.426;37.756;2022-11-15T19:05:31;4.45;;;2.22;;
42670;SDS011;28283;55.426;37.756;2022-11-15T19:10:34;5.07;;;2.45;;
42670;SDS011;28283;55.426;37.756;2022-11-15T19:15:35;5.22;;;2.38;;
42670;SDS011;28283;55.426;37.756;2022-11-15T19:20:36;2.60;;;2.00;;
42670;SDS011;28283;55.426;37.756;2022-11-15T19:30:37;4.38;;;2.70;;
42670;SDS011;28283;55.426;37.756;2022-11-15T19:35:38;5.25;;;2.78;;
42670;SDS011;28283;55.426;37.756;2022-11-15T19:45:39;5.00;;;3.05;;
42670;SDS011;28283;55.426;37.756;2022-11-15T19:50:40;3.95;;;2.72;;
42670;SDS011;28283;55.426;37.756;2022-11-15T19:55:56;5.38;;;2.67;;
42670;SDS011;28283;55.426;37.756;2022-11-15T20:01:05;5.22;;;2.88;;
42670;SDS011;28283;55.426;37.756;2022-11-15T20:06:09;6.55;;;3.13;;
42670;SDS011;28283;55.426;37.756;2022-11-15T20:11:13;5.20;;;3.40;;
42670;SDS011;28283;55.426;37.756;2022-11-15T20:16:18;5.95;;;3.88;;
42670;SDS011;28283;55.426;37.756;2022-11-15T20:21:20;5.50;;;4.07;;
42670;SDS011;28283;55.426;37.756;2022-11-15T20:26:24;6.47;;;3.80;;
42670;SDS011;28283;55.426;37.756;2022-11-15T20:31:25;6.97;;;4.47;;
42670;SDS011;28283;55.426;37.756;2022-11-15T20:36:26;6.40;;;3.85;;
42670;SDS011;28283;55.426;37.756;2022-11-15T20:41:28;10.05;;;3.97;;
42670;SDS011;28283;55.426;37.756;2022-11-15T20:46:29;7.38;;;4.38;;
42670;SDS011;28283;55.426;37.756;2022-11-15T20:56:30;7.10;;;3.97;;
42670;SDS011;28283;55.426;37.756;2022-11-15T21:01:31;7.68;;;4.47;;
42670;SDS011;28283;55.426;37.756;2022-11-15T21:11:32;12.38;;;4.45;;
42670;SDS011;28283;55.426;37.756;2022-11-15T21:16:52;9.07;;;5.00;;
42670;SDS011;28283;55.426;37.756;2022-11-15T21:21:52;7.32;;;4.55;;
42670;SDS011;28283;55.426;37.756;2022-11-15T21:32:02;8.40;;;4.38;;
42670;SDS011;28283;55.426;37.756;2022-11-15T21:37:06;10.90;;;5.30;;
42670;SDS011;28283;55.426;37.756;2022-11-15T21:47:07;8.82;;;4.53;;
42670;SDS011;28283;55.426;37.756;2022-11-15T21:57:09;9.63;;;4.15;;
42670;SDS011;28283;55.426;37.756;2022-11-15T22:02:10;9.85;;;4.68;;
42670;SDS011;28283;55.426;37.756;2022-11-15T22:07:14;7.50;;;4.50;;
42670;SDS011;28283;55.426;37.756;2022-11-15T22:17:15;9.25;;;4.40;;
42670;SDS011;28283;55.426;37.756;2022-11-15T22:27:16;9.07;;;4.68;;
42670;SDS011;28283;55.426;37.756;2022-11-15T22:32:17;10.23;;;5.15;;
42670;SDS011;28283;55.426;37.756;2022-11-15T22:42:18;8.68;;;5.43;;
42670;SDS011;28283;55.426;37.756;2022-11-15T22:52:20;8.55;;;4.80;;
42670;SDS011;28283;55.426;37.756;2022-11-15T22:57:21;9.60;;;5.75;;
42670;SDS011;28283;55.426;37.756;2022-11-15T23:07:22;8.88;;;6.35;;
42670;SDS011;28283;55.426;37.756;2022-11-15T23:17:42;9.35;;;6.03;;
42670;SDS011;28283;55.426;37.756;2022-11-15T23:27:46;10.00;;;6.28;;
42670;SDS011;28283;55.426;37.756;2022-11-15T23:38:06;9.48;;;7.78;;
42670;SDS011;28283;55.426;37.756;2022-11-15T23:48:07;11.93;;;8.65;;
42670;SDS011;28283;55.426;37.756;2022-11-15T23:58:09;12.82;;;10.23;;
